createdAt,value
2023-05-05T00:00:00.519Z,100146.31
2023-05-05T00:02:32.750Z,100146.48
2023-05-05T00:05:05.616Z,100144.28
2023-05-05T00:07:37.691Z,100145.41
2023-05-05T00:10:11.046Z,100144.73
2023-05-05T00:12:43.273Z,100142.88
2023-05-05T00:15:15.607Z,100142.91
2023-05-05T00:17:48.177Z,100143.45
2023-05-05T00:20:20.451Z,100147.91
2023-05-05T00:22:56.883Z,100147.64
2023-05-05T00:25:29.717Z,100149.41
2023-05-05T00:28:01.925Z,100145.44
2023-05-05T00:30:34.428Z,100145.36
2023-05-05T00:33:07.235Z,100143.00
2023-05-05T00:35:39.424Z,100140.34
2023-05-05T00:38:11.718Z,100142.83
2023-05-05T00:40:43.911Z,100140.57
2023-05-05T00:43:16.135Z,100139.05
2023-05-05T00:45:54.373Z,100137.25
2023-05-05T00:48:27.029Z,100140.89
2023-05-05T00:50:59.806Z,100137.37
2023-05-05T00:53:32.769Z,100137.49
2023-05-05T00:56:05.548Z,100141.65
2023-05-05T00:58:38.630Z,100142.02
2023-05-05T01:01:12.908Z,100141.15
2023-05-05T01:03:45.335Z,100137.18
2023-05-05T01:06:42.521Z,100138.13
2023-05-05T01:09:25.273Z,100135.04
2023-05-05T01:12:12.398Z,100131.80
2023-05-05T01:14:51.586Z,100127.18
2023-05-05T01:17:30.288Z,100123.70
2023-05-05T01:20:15.677Z,100117.38
2023-05-05T01:22:52.717Z,100120.74
2023-05-05T01:25:50.602Z,100117.59
2023-05-05T01:28:35.943Z,100113.90
2023-05-05T01:31:27.068Z,100115.52
2023-05-05T01:34:05.716Z,100113.78
2023-05-05T01:36:40.074Z,100113.19
2023-05-05T01:39:16.956Z,100114.05
2023-05-05T01:41:52.744Z,100112.71
2023-05-05T01:44:24.954Z,100110.87
2023-05-05T01:46:58.950Z,100115.83
2023-05-05T01:49:34.839Z,100120.36
2023-05-05T01:52:08.426Z,100121.65
2023-05-05T01:54:42.553Z,100124.63
2023-05-05T01:57:16.742Z,100128.48
2023-05-05T01:59:49.840Z,100131.33
2023-05-05T02:02:24.447Z,100134.52
2023-05-05T02:04:59.285Z,100138.12
2023-05-05T02:07:32.418Z,100140.72
2023-05-05T02:10:06.412Z,100143.47
2023-05-05T02:12:41.021Z,100143.69
2023-05-05T02:15:16.616Z,100138.69
2023-05-05T02:17:52.029Z,100131.73
2023-05-05T02:20:32.424Z,100128.33
2023-05-05T02:23:05.945Z,100127.35
2023-05-05T02:25:42.181Z,100125.89
2023-05-05T02:28:19.765Z,100123.05
2023-05-05T02:30:58.610Z,100117.40
2023-05-05T02:33:35.284Z,100117.55
2023-05-05T02:36:13.132Z,100118.10
2023-05-05T02:38:56.902Z,100122.91
2023-05-05T02:41:33.046Z,100125.23
2023-05-05T02:44:09.106Z,100123.14
2023-05-05T02:46:42.283Z,100123.88
2023-05-05T02:49:14.481Z,100118.16
2023-05-05T02:51:46.846Z,100120.20
2023-05-05T02:54:29.614Z,100121.48
2023-05-05T02:57:02.983Z,100126.42
2023-05-05T02:59:41.978Z,100124.61
2023-05-05T03:02:20.158Z,100125.42
2023-05-05T03:04:57.733Z,100133.94
2023-05-05T03:07:36.134Z,100131.28
2023-05-05T03:10:13.349Z,100127.98
2023-05-05T03:12:50.980Z,100126.40
2023-05-05T03:15:31.447Z,100126.36
2023-05-05T03:18:07.469Z,100124.01
2023-05-05T03:20:41.333Z,100121.85
2023-05-05T03:23:18.424Z,100118.34
2023-05-05T03:25:52.034Z,100118.45
2023-05-05T03:28:33.712Z,100119.76
2023-05-05T03:31:09.325Z,100121.56
2023-05-05T03:33:42.395Z,100123.52
2023-05-05T03:36:15.021Z,100126.35
2023-05-05T03:38:47.269Z,100132.50
2023-05-05T03:41:19.620Z,100131.96
2023-05-05T03:43:51.958Z,100127.47
2023-05-05T03:46:24.656Z,100128.67
2023-05-05T03:48:57.262Z,100131.70
2023-05-05T03:51:29.962Z,100131.52
2023-05-05T03:54:03.083Z,100126.67
2023-05-05T03:56:35.190Z,100127.27
2023-05-05T03:59:08.884Z,100126.87
2023-05-05T04:01:41.707Z,100126.79
2023-05-05T04:04:14.032Z,100123.06
2023-05-05T04:06:46.281Z,100120.88
2023-05-05T04:09:18.890Z,100124.14
2023-05-05T04:11:51.281Z,100126.77
2023-05-05T04:14:23.553Z,100134.52
2023-05-05T04:16:57.188Z,100138.02
2023-05-05T04:19:29.245Z,100147.71
2023-05-05T04:22:02.004Z,100148.31
2023-05-05T04:24:34.848Z,100153.17
2023-05-05T04:27:07.232Z,100154.40
2023-05-05T04:29:39.710Z,100159.29
2023-05-05T04:32:12.477Z,100156.85
2023-05-05T04:34:44.533Z,100154.75
2023-05-05T04:37:16.775Z,100154.86
2023-05-05T04:39:49.280Z,100158.52
2023-05-05T04:42:21.524Z,100159.72
2023-05-05T04:44:54.050Z,100165.73
2023-05-05T04:47:26.996Z,100170.64
2023-05-05T04:49:59.093Z,100176.71
2023-05-05T04:52:31.274Z,100177.89
2023-05-05T04:55:03.736Z,100182.33
2023-05-05T04:57:35.792Z,100184.38
2023-05-05T05:00:10.716Z,100183.66
2023-05-05T05:02:43.183Z,100187.58
2023-05-05T05:05:15.578Z,100190.45
2023-05-05T05:07:47.734Z,100192.09
2023-05-05T05:10:20.224Z,100188.88
2023-05-05T05:12:52.375Z,100187.77
2023-05-05T05:15:24.701Z,100187.15
2023-05-05T05:17:57.334Z,100187.86
2023-05-05T05:20:30.974Z,100181.48
2023-05-05T05:23:04.596Z,100185.36
2023-05-05T05:25:38.578Z,100186.67
2023-05-05T05:28:11.184Z,100191.13
2023-05-05T05:30:53.902Z,100195.77
2023-05-05T05:33:26.714Z,100196.66
2023-05-05T05:35:59.634Z,100187.95
2023-05-05T05:38:32.277Z,100187.73
2023-05-05T05:41:09.300Z,100186.34
2023-05-05T05:43:42.838Z,100180.84
2023-05-05T05:46:15.166Z,100181.29
2023-05-05T05:48:48.238Z,100185.02
2023-05-05T05:51:20.349Z,100185.61
2023-05-05T05:53:52.933Z,100187.64
2023-05-05T05:56:24.974Z,100185.42
2023-05-05T05:58:57.812Z,100183.80
2023-05-05T06:01:30.146Z,100182.92
2023-05-05T06:04:03.372Z,100184.13
2023-05-05T06:06:35.970Z,100184.88
2023-05-05T06:09:08.236Z,100184.98
2023-05-05T06:11:40.324Z,100188.02
2023-05-05T06:14:12.901Z,100188.02
2023-05-05T06:16:45.376Z,100180.55
2023-05-05T06:19:19.687Z,100182.38
2023-05-05T06:21:52.192Z,100180.71
2023-05-05T06:24:24.652Z,100180.65
2023-05-05T06:26:56.984Z,100180.19
2023-05-05T06:29:29.892Z,100184.10
2023-05-05T06:32:02.374Z,100183.07
2023-05-05T06:34:34.524Z,100183.54
2023-05-05T06:37:06.745Z,100187.70
2023-05-05T06:39:39.106Z,100189.50
2023-05-05T06:42:11.401Z,100184.71
2023-05-05T06:44:43.557Z,100191.89
2023-05-05T06:47:15.700Z,100188.89
2023-05-05T06:49:48.151Z,100192.02
2023-05-05T06:52:20.754Z,100187.40
2023-05-05T06:54:52.814Z,100183.02
2023-05-05T06:57:24.924Z,100180.27
2023-05-05T06:59:57.364Z,100179.37
2023-05-05T07:02:29.714Z,100179.58
2023-05-05T07:05:02.406Z,100181.30
2023-05-05T07:07:34.664Z,100181.09
2023-05-05T07:10:10.026Z,100181.71
2023-05-05T07:12:42.510Z,100179.23
2023-05-05T07:15:26.121Z,100177.78
2023-05-05T07:17:59.496Z,100175.12
2023-05-05T07:20:31.634Z,100171.35
2023-05-05T07:23:03.732Z,100172.81
2023-05-05T07:25:36.137Z,100163.11
2023-05-05T07:28:09.131Z,100166.42
2023-05-05T07:30:41.814Z,100161.92
2023-05-05T07:33:14.766Z,100164.86
2023-05-05T07:35:47.072Z,100168.69
2023-05-05T07:38:19.290Z,100164.70
2023-05-05T07:40:51.517Z,100164.89
2023-05-05T07:43:23.627Z,100165.38
2023-05-05T07:45:55.966Z,100169.87
2023-05-05T07:48:28.769Z,100163.60
2023-05-05T07:51:01.012Z,100159.77
2023-05-05T07:53:33.570Z,100164.27
2023-05-05T07:56:06.506Z,100164.10
2023-05-05T07:58:39.191Z,100162.52
2023-05-05T08:01:12.944Z,100161.11
2023-05-05T08:03:45.232Z,100160.16
2023-05-05T08:06:22.120Z,100153.44
2023-05-05T08:08:54.781Z,100150.52
2023-05-05T08:11:29.473Z,100149.56
2023-05-05T08:14:02.088Z,100144.44
2023-05-05T08:16:35.052Z,100146.88
2023-05-05T08:19:17.727Z,100140.23
2023-05-05T08:21:58.835Z,100140.46
2023-05-05T08:26:29.869Z,100138.38
2023-05-05T08:29:02.086Z,100136.97
2023-05-05T08:31:37.136Z,100134.24
2023-05-05T08:34:09.323Z,100133.40
2023-05-05T08:36:41.770Z,100129.07
2023-05-05T08:39:13.839Z,100125.08
2023-05-05T08:41:46.272Z,100124.08
2023-05-05T08:44:18.447Z,100121.38
2023-05-05T08:46:52.080Z,100118.27
2023-05-05T08:49:25.592Z,100115.05
2023-05-05T08:52:01.560Z,100111.95
2023-05-05T08:54:39.341Z,100111.16
2023-05-05T08:57:15.518Z,100113.02
2023-05-05T08:59:47.980Z,100111.15
2023-05-05T09:02:24.025Z,100115.84
2023-05-05T09:04:56.339Z,100113.88
2023-05-05T09:07:28.918Z,100120.13
2023-05-05T09:10:02.181Z,100117.77
2023-05-05T09:12:34.825Z,100117.25
2023-05-05T09:15:08.221Z,100121.35
2023-05-05T09:17:41.122Z,100118.93
2023-05-05T09:20:15.067Z,100117.09
2023-05-05T09:22:48.750Z,100116.02
2023-05-05T09:25:21.438Z,100115.59
2023-05-05T09:27:55.060Z,100112.13
2023-05-05T09:30:28.359Z,100110.09
2023-05-05T09:33:02.304Z,100108.80
2023-05-05T09:35:51.620Z,100107.20
2023-05-05T09:38:25.750Z,100103.95
2023-05-05T09:40:57.904Z,100104.63
2023-05-05T09:43:30.196Z,100102.57
2023-05-05T09:46:10.278Z,100103.25
2023-05-05T09:48:42.477Z,100102.01
2023-05-05T09:51:14.557Z,100103.51
2023-05-05T09:53:46.895Z,100105.11
2023-05-05T09:56:20.125Z,100104.02
2023-05-05T09:59:08.969Z,100098.07
2023-05-05T10:01:43.613Z,100094.63
2023-05-05T10:04:28.198Z,100092.35
2023-05-05T10:07:01.064Z,100092.64
2023-05-05T10:09:33.437Z,100092.00
2023-05-05T10:12:07.113Z,100092.21
2023-05-05T10:14:39.519Z,100096.10
2023-05-05T10:17:13.208Z,100096.11
2023-05-05T10:19:46.414Z,100104.08
2023-05-05T10:22:20.210Z,100094.36
2023-05-05T10:24:58.499Z,100088.60
2023-05-05T10:27:35.451Z,100082.52
2023-05-05T10:30:12.383Z,100082.73
2023-05-05T10:33:00.895Z,100085.52
2023-05-05T10:35:45.362Z,100084.58
2023-05-05T10:38:18.810Z,100077.73
2023-05-05T10:40:51.601Z,100072.83
2023-05-05T10:43:24.886Z,100072.41
2023-05-05T10:45:58.119Z,100069.75
2023-05-05T10:48:37.503Z,100065.38
2023-05-05T10:51:38.326Z,100064.61
2023-05-05T10:54:19.122Z,100061.06
2023-05-05T10:56:52.133Z,100057.39
2023-05-05T10:59:47.970Z,100057.44
2023-05-05T11:02:28.317Z,100053.50
2023-05-05T11:05:23.667Z,100047.48
2023-05-05T11:07:56.062Z,100046.36
2023-05-05T11:10:46.997Z,100045.56
2023-05-05T11:13:22.686Z,100045.88
2023-05-05T11:15:56.794Z,100043.70
2023-05-05T11:18:39.005Z,100044.94
2023-05-05T11:21:16.985Z,100041.10
2023-05-05T11:23:51.703Z,100034.64
2023-05-05T11:26:52.763Z,100037.14
2023-05-05T11:29:25.010Z,100035.18
2023-05-05T11:32:17.156Z,100028.97
2023-05-05T11:34:53.571Z,100030.89
2023-05-05T11:37:28.568Z,100030.65
2023-05-05T11:40:22.919Z,100032.23
2023-05-05T11:43:10.457Z,100030.08
2023-05-05T11:45:41.186Z,100031.38
2023-05-05T11:48:28.951Z,100032.69
2023-05-05T11:51:03.986Z,100029.20
2023-05-05T11:53:36.999Z,100030.45
2023-05-05T11:56:19.085Z,100023.89
2023-05-05T11:59:07.233Z,100028.02
2023-05-05T12:01:42.733Z,100024.40
2023-05-05T12:04:16.482Z,100020.94
2023-05-05T12:06:49.579Z,100012.54
2023-05-05T12:09:24.008Z,100011.83
2023-05-05T12:11:58.173Z,100013.91
2023-05-05T12:14:30.507Z,100013.13
2023-05-05T12:17:08.389Z,100006.19
2023-05-05T12:19:48.008Z,100004.30
2023-05-05T12:22:25.207Z,100000.48
2023-05-05T12:25:02.488Z,99999.03
2023-05-05T12:27:35.551Z,99997.67
2023-05-05T12:30:19.697Z,99997.16
2023-05-05T12:32:51.819Z,99992.03
2023-05-05T12:35:24.201Z,99992.42
2023-05-05T12:37:56.542Z,99984.89
2023-05-05T12:40:48.790Z,99977.63
2023-05-05T12:43:32.763Z,99976.13
2023-05-05T12:46:07.982Z,99974.52
2023-05-05T12:48:41.669Z,99969.73
2023-05-05T12:51:23.305Z,99970.86
2023-05-05T12:54:07.357Z,99970.20
2023-05-05T12:56:41.232Z,99961.38
2023-05-05T12:59:29.507Z,99960.17
2023-05-05T13:02:02.661Z,99955.73
2023-05-05T13:04:35.754Z,99958.76
2023-05-05T13:07:15.002Z,99953.77
2023-05-05T13:09:48.323Z,99948.00
2023-05-05T13:12:22.707Z,99947.98
2023-05-05T13:14:56.689Z,99944.77
2023-05-05T13:17:28.977Z,99945.54
2023-05-05T13:20:01.403Z,99942.74
2023-05-05T13:22:33.964Z,99936.98
2023-05-05T13:25:07.817Z,99928.83
2023-05-05T13:27:40.231Z,99926.47
2023-05-05T13:30:14.405Z,99925.89
2023-05-05T13:32:46.445Z,99921.17
2023-05-05T13:35:18.951Z,99916.08
2023-05-05T13:37:51.028Z,99911.11
2023-05-05T13:40:25.748Z,99912.81
2023-05-05T13:42:56.803Z,99914.33
2023-05-05T13:45:29.224Z,99909.49
2023-05-05T13:48:01.462Z,99906.86
2023-05-05T13:50:34.004Z,99905.72
2023-05-05T13:53:06.226Z,99909.27
2023-05-05T13:55:38.381Z,99908.33
2023-05-05T13:58:10.602Z,99907.13
2023-05-05T14:00:43.398Z,99900.20
2023-05-05T14:03:16.237Z,99898.44
2023-05-05T14:05:48.461Z,99891.33
2023-05-05T14:08:20.868Z,99888.06
2023-05-05T14:10:53.011Z,99881.71
2023-05-05T14:13:25.247Z,99883.77
2023-05-05T14:15:58.674Z,99882.70
2023-05-05T14:18:30.867Z,99883.06
2023-05-05T14:21:02.970Z,99883.70
2023-05-05T14:23:35.794Z,99887.17
2023-05-05T14:26:09.291Z,99884.95
2023-05-05T14:28:42.369Z,99887.21
2023-05-05T14:31:14.530Z,99888.39
2023-05-05T14:33:46.861Z,99885.77
2023-05-05T14:36:19.504Z,99886.69
2023-05-05T14:38:52.150Z,99889.25
2023-05-05T14:41:25.039Z,99886.21
2023-05-05T14:43:57.297Z,99883.25
2023-05-05T14:46:29.698Z,99883.33
2023-05-05T14:49:02.388Z,99880.04
2023-05-05T14:51:34.520Z,99878.63
2023-05-05T14:54:14.323Z,99875.90
2023-05-05T14:56:50.447Z,99870.99
2023-05-05T14:59:22.926Z,99872.76
2023-05-05T15:01:55.809Z,99868.15
2023-05-05T15:04:28.093Z,99866.35
2023-05-05T15:07:00.564Z,99862.60
2023-05-05T15:09:32.853Z,99857.44
2023-05-05T15:12:05.280Z,99860.91
2023-05-05T15:14:38.443Z,99864.86
2023-05-05T15:17:13.046Z,99861.66
2023-05-05T15:19:46.070Z,99858.09
2023-05-05T15:22:18.180Z,99854.90
2023-05-05T15:24:50.674Z,99855.05
2023-05-05T15:27:23.069Z,99851.39
2023-05-05T15:29:55.411Z,99853.48
2023-05-05T15:32:28.471Z,99850.33
2023-05-05T15:35:00.696Z,99849.98
2023-05-05T15:37:33.968Z,99848.93
2023-05-05T15:40:07.622Z,99846.23
2023-05-05T15:42:39.837Z,99843.67
2023-05-05T15:45:15.106Z,99844.55
2023-05-05T15:47:48.009Z,99846.03
2023-05-05T15:50:20.578Z,99845.33
2023-05-05T15:52:52.784Z,99846.48
2023-05-05T15:55:26.826Z,99843.52
2023-05-05T15:57:59.243Z,99844.09
2023-05-05T16:00:31.595Z,99839.34
2023-05-05T16:03:03.797Z,99843.88
2023-05-05T16:05:36.266Z,99839.48
2023-05-05T16:08:10.460Z,99840.08
2023-05-05T16:10:42.650Z,99839.00
2023-05-05T16:13:14.989Z,99832.88
2023-05-05T16:15:47.367Z,99834.52
2023-05-05T16:18:19.758Z,99836.61
2023-05-05T16:20:52.114Z,99830.39
2023-05-05T16:23:24.399Z,99828.59
2023-05-05T16:25:56.775Z,99831.98
2023-05-05T16:28:29.103Z,99829.92
2023-05-05T16:31:01.624Z,99832.20
2023-05-05T16:33:36.164Z,99830.09
2023-05-05T16:36:10.172Z,99831.91
2023-05-05T16:38:44.075Z,99826.92
2023-05-05T16:41:16.170Z,99829.73
2023-05-05T16:43:48.270Z,99828.54
2023-05-05T16:46:20.516Z,99827.20
2023-05-05T16:48:52.693Z,99830.39
2023-05-05T16:51:26.397Z,99834.16
2023-05-05T16:53:59.316Z,99831.40
2023-05-05T16:56:31.823Z,99830.73
2023-05-05T16:59:04.021Z,99830.70
2023-05-05T17:01:36.281Z,99832.54
2023-05-05T17:04:08.389Z,99830.59
2023-05-05T17:06:41.428Z,99831.80
2023-05-05T17:09:14.343Z,99832.27
2023-05-05T17:11:46.622Z,99835.20
2023-05-05T17:14:18.886Z,99835.03
2023-05-05T17:16:51.476Z,99835.40
2023-05-05T17:19:23.674Z,99834.80
2023-05-05T17:21:56.065Z,99832.98
2023-05-05T17:24:28.428Z,99830.83
2023-05-05T17:27:02.317Z,99835.73
2023-05-05T17:29:39.539Z,99841.77
2023-05-05T17:32:12.148Z,99839.74
2023-05-05T17:34:44.388Z,99842.86
2023-05-05T17:37:16.850Z,99846.66
2023-05-05T17:39:49.145Z,99846.52
2023-05-05T17:42:23.179Z,99852.83
2023-05-05T17:44:55.739Z,99857.95
2023-05-05T17:47:28.428Z,99858.79
2023-05-05T17:50:00.837Z,99858.35
2023-05-05T17:52:33.320Z,99860.02
2023-05-05T17:55:05.967Z,99858.33
2023-05-05T17:57:38.420Z,99855.39
2023-05-05T18:00:12.623Z,99858.70
2023-05-05T18:02:45.202Z,99855.90
2023-05-05T18:05:21.073Z,99854.52
2023-05-05T18:07:53.435Z,99854.69
2023-05-05T18:10:25.982Z,99856.89
2023-05-05T18:12:58.631Z,99859.29
2023-05-05T18:15:31.925Z,99860.27
2023-05-05T18:18:04.987Z,99862.13
2023-05-05T18:20:38.468Z,99868.19
2023-05-05T18:23:11.506Z,99878.05
2023-05-05T18:25:44.355Z,99875.34
2023-05-05T18:28:17.127Z,99880.82
2023-05-05T18:30:50.599Z,99890.14
2023-05-05T18:33:23.732Z,99893.01
2023-05-05T18:35:57.916Z,99898.64
2023-05-05T18:38:30.680Z,99902.34
2023-05-05T18:41:07.423Z,99902.42
2023-05-05T18:43:42.352Z,99905.10
2023-05-05T18:46:20.898Z,99907.08
2023-05-05T18:48:55.056Z,99909.91
2023-05-05T18:51:32.454Z,99909.63
2023-05-05T18:54:06.127Z,99907.78
2023-05-05T18:56:42.407Z,99906.25
2023-05-05T18:59:16.798Z,99907.53
2023-05-05T19:01:51.392Z,99905.66
2023-05-05T19:04:36.549Z,99913.73
2023-05-05T19:07:23.860Z,99911.14
2023-05-05T19:10:07.018Z,99911.52
2023-05-05T19:12:40.323Z,99916.77
2023-05-05T19:15:14.708Z,99917.31
2023-05-05T19:17:49.814Z,99922.02
2023-05-05T19:20:24.017Z,99926.05
2023-05-05T19:23:04.833Z,99923.64
2023-05-05T19:25:40.053Z,99919.47
2023-05-05T19:28:28.216Z,99916.35
2023-05-05T19:31:04.887Z,99915.15
2023-05-05T19:33:45.730Z,99913.77
2023-05-05T19:36:19.967Z,99912.56
2023-05-05T19:39:03.417Z,99910.83
2023-05-05T19:41:40.725Z,99911.70
2023-05-05T19:44:15.548Z,99918.26
2023-05-05T19:46:50.343Z,99917.05
2023-05-05T19:49:25.253Z,99915.13
2023-05-05T19:52:07.470Z,99914.60
2023-05-05T19:54:40.209Z,99910.44
2023-05-05T19:57:15.173Z,99909.56
2023-05-05T19:59:53.603Z,99911.99
2023-05-05T20:02:29.978Z,99912.16
2023-05-05T20:05:14.084Z,99907.63
2023-05-05T20:07:47.660Z,99906.23
2023-05-05T20:10:21.133Z,99905.86
2023-05-05T20:13:01.741Z,99903.25
2023-05-05T20:15:42.151Z,99902.02
2023-05-05T20:18:15.647Z,99899.59
2023-05-05T20:20:53.899Z,99898.71
2023-05-05T20:23:27.347Z,99902.85
2023-05-05T20:26:04.760Z,99899.35
2023-05-05T20:28:41.857Z,99899.33
2023-05-05T20:31:19.729Z,99901.73
2023-05-05T20:33:56.357Z,99897.71
2023-05-05T20:36:29.395Z,99899.04
2023-05-05T20:39:04.002Z,99900.55
2023-05-05T20:41:41.560Z,99905.50
2023-05-05T20:44:14.759Z,99901.27
2023-05-05T20:46:47.616Z,99903.30
2023-05-05T20:49:21.335Z,99898.55
2023-05-05T20:51:54.140Z,99892.61
2023-05-05T20:54:27.009Z,99891.69
2023-05-05T20:57:00.370Z,99891.33
2023-05-05T20:59:34.187Z,99889.55
2023-05-05T21:02:06.869Z,99890.66
2023-05-05T21:04:39.678Z,99889.33
2023-05-05T21:07:12.743Z,99886.13
2023-05-05T21:09:46.692Z,99884.51
2023-05-05T21:12:20.703Z,99884.25
2023-05-05T21:14:57.006Z,99882.48
2023-05-05T21:17:31.400Z,99881.02
2023-05-05T21:20:05.260Z,99873.33
2023-05-05T21:22:38.828Z,99872.08
2023-05-05T21:25:18.493Z,99869.64
2023-05-05T21:27:51.755Z,99868.23
2023-05-05T21:30:26.416Z,99867.34
2023-05-05T21:32:59.218Z,99865.95
2023-05-05T21:35:31.858Z,99862.49
2023-05-05T21:38:04.340Z,99861.97
2023-05-05T21:40:36.958Z,99860.41
2023-05-05T21:43:09.407Z,99860.73
2023-05-05T21:45:41.762Z,99861.40
2023-05-05T21:48:15.575Z,99863.47
2023-05-05T21:50:48.204Z,99864.30
2023-05-05T21:53:20.630Z,99867.39
2023-05-05T21:55:52.857Z,99864.45
2023-05-05T21:58:29.284Z,99870.35
2023-05-05T22:01:02.286Z,99871.77
2023-05-05T22:03:35.114Z,99876.08
2023-05-05T22:06:08.903Z,99874.83
2023-05-05T22:08:41.552Z,99874.61
2023-05-05T22:11:13.987Z,99877.16
2023-05-05T22:13:47.260Z,99875.58
2023-05-05T22:16:19.836Z,99875.25
2023-05-05T22:18:52.830Z,99874.14
2023-05-05T22:21:25.489Z,99873.79
2023-05-05T22:23:57.766Z,99869.13
2023-05-05T22:26:29.924Z,99866.73
2023-05-05T22:29:02.059Z,99865.90
2023-05-05T22:31:34.338Z,99864.98
2023-05-05T22:34:07.213Z,99861.81
2023-05-05T22:36:39.438Z,99859.55
2023-05-05T22:39:11.929Z,99857.65
2023-05-05T22:41:44.199Z,99860.21
2023-05-05T22:44:16.365Z,99857.43
2023-05-05T22:46:48.533Z,99853.61
2023-05-05T22:49:21.075Z,99853.73
2023-05-05T22:51:54.434Z,99853.73
2023-05-05T22:54:27.183Z,99855.92
2023-05-05T22:56:59.650Z,99863.62
2023-05-05T22:59:31.736Z,99863.28
2023-05-05T23:02:03.805Z,99862.93
2023-05-05T23:04:36.132Z,99866.39
2023-05-05T23:07:08.347Z,99858.60
2023-05-05T23:09:41.563Z,99857.73
2023-05-05T23:12:13.680Z,99855.61
2023-05-05T23:14:45.919Z,99860.73
2023-05-05T23:17:18.215Z,99856.23
2023-05-05T23:19:51.591Z,99857.38
2023-05-05T23:22:23.845Z,99855.95
2023-05-05T23:24:56.017Z,99853.05
2023-05-05T23:27:28.180Z,99851.55
2023-05-05T23:30:00.292Z,99845.90
2023-05-05T23:32:32.563Z,99843.56
2023-05-05T23:35:05.051Z,99841.92
2023-05-05T23:37:37.287Z,99833.91
2023-05-05T23:40:11.700Z,99832.67
2023-05-05T23:42:43.898Z,99828.98
2023-05-05T23:45:18.064Z,99827.07
2023-05-05T23:47:52.592Z,99823.38
2023-05-05T23:50:26.031Z,99819.54
2023-05-05T23:52:58.157Z,99812.89
2023-05-05T23:55:30.192Z,99808.36
2023-05-05T23:58:02.284Z,99810.70
